sensor_id;sensor_type;location;lat;lon;timestamp;temperature;humidity
48416;DHT22;34227;51.840;4.146;2023-05-19T00:02:46;12.80;79.40
48416;DHT22;34227;51.840;4.146;2023-05-19T00:05:11;12.70;79.20
48416;DHT22;34227;51.840;4.146;2023-05-19T00:07:39;12.80;79.50
48416;DHT22;34227;51.840;4.146;2023-05-19T00:10:05;12.80;78.90
48416;DHT22;34227;51.840;4.146;2023-05-19T00:12:31;12.70;78.90
48416;DHT22;34227;51.840;4.146;2023-05-19T00:15:06;12.80;79.10
48416;DHT22;34227;51.840;4.146;2023-05-19T00:17:32;12.70;79.40
48416;DHT22;34227;51.840;4.146;2023-05-19T00:19:58;12.70;79.50
48416;DHT22;34227;51.840;4.146;2023-05-19T00:22:24;12.60;79.40
48416;DHT22;34227;51.840;4.146;2023-05-19T00:24:50;12.60;79.10
48416;DHT22;34227;51.840;4.146;2023-05-19T00:27:15;12.60;79.50
48416;DHT22;34227;51.840;4.146;2023-05-19T00:29:41;12.60;79.60
48416;DHT22;34227;51.840;4.146;2023-05-19T00:32:07;12.60;79.30
48416;DHT22;34227;51.840;4.146;2023-05-19T00:34:33;12.60;79.10
48416;DHT22;34227;51.840;4.146;2023-05-19T00:36:58;12.50;79.30
48416;DHT22;34227;51.840;4.146;2023-05-19T00:39:24;12.50;79.20
48416;DHT22;34227;51.840;4.146;2023-05-19T00:41:49;12.50;79.80
48416;DHT22;34227;51.840;4.146;2023-05-19T00:44:15;12.50;80.00
48416;DHT22;34227;51.840;4.146;2023-05-19T00:46:41;12.40;80.20
48416;DHT22;34227;51.840;4.146;2023-05-19T00:49:06;12.40;80.40
48416;DHT22;34227;51.840;4.146;2023-05-19T00:51:32;12.40;80.80
48416;DHT22;34227;51.840;4.146;2023-05-19T00:53:57;12.40;80.90
48416;DHT22;34227;51.840;4.146;2023-05-19T00:56:23;12.40;80.80
48416;DHT22;34227;51.840;4.146;2023-05-19T00:58:52;12.30;80.70
48416;DHT22;34227;51.840;4.146;2023-05-19T01:01:17;12.30;80.90
48416;DHT22;34227;51.840;4.146;2023-05-19T01:03:45;12.30;81.10
48416;DHT22;34227;51.840;4.146;2023-05-19T01:06:11;12.30;81.20
48416;DHT22;34227;51.840;4.146;2023-05-19T01:08:37;12.20;80.80
48416;DHT22;34227;51.840;4.146;2023-05-19T01:11:06;12.20;80.80
48416;DHT22;34227;51.840;4.146;2023-05-19T01:13:32;12.20;80.80
48416;DHT22;34227;51.840;4.146;2023-05-19T01:16:03;12.20;80.60
48416;DHT22;34227;51.840;4.146;2023-05-19T01:32:15;12.00;80.70
48416;DHT22;34227;51.840;4.146;2023-05-19T01:34:43;12.00;81.50
48416;DHT22;34227;51.840;4.146;2023-05-19T01:37:11;12.00;80.80
48416;DHT22;34227;51.840;4.146;2023-05-19T01:39:38;12.00;80.80
48416;DHT22;34227;51.840;4.146;2023-05-19T01:42:07;11.90;80.80
48416;DHT22;34227;51.840;4.146;2023-05-19T01:44:33;11.90;81.00
48416;DHT22;34227;51.840;4.146;2023-05-19T01:46:59;11.90;81.30
48416;DHT22;34227;51.840;4.146;2023-05-19T01:49:25;11.80;81.00
48416;DHT22;34227;51.840;4.146;2023-05-19T01:51:51;11.80;81.30
48416;DHT22;34227;51.840;4.146;2023-05-19T01:54:16;11.70;81.80
48416;DHT22;34227;51.840;4.146;2023-05-19T01:56:45;11.70;82.00
48416;DHT22;34227;51.840;4.146;2023-05-19T02:03:13;11.60;82.70
48416;DHT22;34227;51.840;4.146;2023-05-19T02:05:08;11.50;83.20
48416;DHT22;34227;51.840;4.146;2023-05-19T02:07:48;11.50;83.10
48416;DHT22;34227;51.840;4.146;2023-05-19T02:10:39;11.50;83.60
48416;DHT22;34227;51.840;4.146;2023-05-19T02:13:03;11.40;83.80
48416;DHT22;34227;51.840;4.146;2023-05-19T02:15:31;11.40;83.70
48416;DHT22;34227;51.840;4.146;2023-05-19T02:17:59;11.30;83.60
48416;DHT22;34227;51.840;4.146;2023-05-19T02:20:30;11.30;83.50
48416;DHT22;34227;51.840;4.146;2023-05-19T02:22:55;11.30;83.70
48416;DHT22;34227;51.840;4.146;2023-05-19T02:25:21;11.20;83.40
48416;DHT22;34227;51.840;4.146;2023-05-19T02:27:47;11.20;83.40
48416;DHT22;34227;51.840;4.146;2023-05-19T02:30:13;11.20;83.60
48416;DHT22;34227;51.840;4.146;2023-05-19T02:32:38;11.10;83.20
48416;DHT22;34227;51.840;4.146;2023-05-19T02:35:04;11.10;83.50
48416;DHT22;34227;51.840;4.146;2023-05-19T02:37:30;11.10;83.30
48416;DHT22;34227;51.840;4.146;2023-05-19T02:39:59;11.00;83.50
48416;DHT22;34227;51.840;4.146;2023-05-19T02:42:24;11.00;83.30
48416;DHT22;34227;51.840;4.146;2023-05-19T02:44:50;11.00;83.50
48416;DHT22;34227;51.840;4.146;2023-05-19T02:47:16;10.90;83.40
48416;DHT22;34227;51.840;4.146;2023-05-19T02:49:42;10.90;83.40
48416;DHT22;34227;51.840;4.146;2023-05-19T02:52:08;10.90;83.50
48416;DHT22;34227;51.840;4.146;2023-05-19T02:54:33;10.90;83.60
48416;DHT22;34227;51.840;4.146;2023-05-19T02:57:02;10.80;83.60
48416;DHT22;34227;51.840;4.146;2023-05-19T02:59:30;10.80;84.10
48416;DHT22;34227;51.840;4.146;2023-05-19T03:02:00;10.80;83.80
48416;DHT22;34227;51.840;4.146;2023-05-19T03:04:26;10.80;84.00
48416;DHT22;34227;51.840;4.146;2023-05-19T03:06:52;10.70;84.10
48416;DHT22;34227;51.840;4.146;2023-05-19T03:09:18;10.70;84.00
48416;DHT22;34227;51.840;4.146;2023-05-19T03:11:44;10.70;84.40
48416;DHT22;34227;51.840;4.146;2023-05-19T03:14:09;10.60;84.70
48416;DHT22;34227;51.840;4.146;2023-05-19T03:16:36;10.60;84.60
48416;DHT22;34227;51.840;4.146;2023-05-19T03:19:01;10.60;84.70
48416;DHT22;34227;51.840;4.146;2023-05-19T03:21:27;10.50;84.50
48416;DHT22;34227;51.840;4.146;2023-05-19T03:23:53;10.50;84.50
48416;DHT22;34227;51.840;4.146;2023-05-19T03:26:19;10.50;84.90
48416;DHT22;34227;51.840;4.146;2023-05-19T03:28:44;10.50;84.90
48416;DHT22;34227;51.840;4.146;2023-05-19T03:31:10;10.50;85.20
48416;DHT22;34227;51.840;4.146;2023-05-19T03:33:35;10.40;85.20
48416;DHT22;34227;51.840;4.146;2023-05-19T03:36:01;10.40;85.80
48416;DHT22;34227;51.840;4.146;2023-05-19T03:38:28;10.40;85.50
48416;DHT22;34227;51.840;4.146;2023-05-19T03:40:53;10.40;86.00
48416;DHT22;34227;51.840;4.146;2023-05-19T03:43:19;10.30;85.70
48416;DHT22;34227;51.840;4.146;2023-05-19T03:45:44;10.30;86.40
48416;DHT22;34227;51.840;4.146;2023-05-19T03:48:10;10.30;86.10
48416;DHT22;34227;51.840;4.146;2023-05-19T03:50:36;10.30;86.40
48416;DHT22;34227;51.840;4.146;2023-05-19T03:53:02;10.30;86.50
48416;DHT22;34227;51.840;4.146;2023-05-19T03:55:28;10.20;86.50
48416;DHT22;34227;51.840;4.146;2023-05-19T03:57:56;10.20;86.50
48416;DHT22;34227;51.840;4.146;2023-05-19T04:00:22;10.20;86.80
48416;DHT22;34227;51.840;4.146;2023-05-19T04:02:48;10.20;86.80
48416;DHT22;34227;51.840;4.146;2023-05-19T04:05:13;10.20;86.60
48416;DHT22;34227;51.840;4.146;2023-05-19T04:07:39;10.20;87.00
48416;DHT22;34227;51.840;4.146;2023-05-19T04:12:35;10.10;86.60
48416;DHT22;34227;51.840;4.146;2023-05-19T04:15:04;10.10;86.70
48416;DHT22;34227;51.840;4.146;2023-05-19T04:17:35;10.10;87.20
48416;DHT22;34227;51.840;4.146;2023-05-19T04:20:01;10.10;87.30
48416;DHT22;34227;51.840;4.146;2023-05-19T04:22:27;10.10;87.70
48416;DHT22;34227;51.840;4.146;2023-05-19T04:24:54;10.10;87.30
48416;DHT22;34227;51.840;4.146;2023-05-19T04:27:20;10.00;87.80
48416;DHT22;34227;51.840;4.146;2023-05-19T04:29:46;10.00;88.30
48416;DHT22;34227;51.840;4.146;2023-05-19T04:32:12;10.00;88.20
48416;DHT22;34227;51.840;4.146;2023-05-19T04:34:41;10.00;87.80
48416;DHT22;34227;51.840;4.146;2023-05-19T04:37:11;10.00;87.80
48416;DHT22;34227;51.840;4.146;2023-05-19T04:39:38;10.00;88.00
48416;DHT22;34227;51.840;4.146;2023-05-19T04:42:07;10.00;88.10
48416;DHT22;34227;51.840;4.146;2023-05-19T04:44:34;10.10;88.10
48416;DHT22;34227;51.840;4.146;2023-05-19T04:47:00;10.00;87.90
48416;DHT22;34227;51.840;4.146;2023-05-19T04:49:26;10.00;88.40
48416;DHT22;34227;51.840;4.146;2023-05-19T04:51:54;10.00;88.90
48416;DHT22;34227;51.840;4.146;2023-05-19T04:54:20;10.10;88.50
48416;DHT22;34227;51.840;4.146;2023-05-19T04:56:46;10.00;88.20
48416;DHT22;34227;51.840;4.146;2023-05-19T04:59:11;10.00;88.60
48416;DHT22;34227;51.840;4.146;2023-05-19T05:01:37;10.00;88.80
48416;DHT22;34227;51.840;4.146;2023-05-19T05:04:05;10.00;90.00
48416;DHT22;34227;51.840;4.146;2023-05-19T05:06:31;10.00;89.40
48416;DHT22;34227;51.840;4.146;2023-05-19T05:08:57;10.00;89.00
48416;DHT22;34227;51.840;4.146;2023-05-19T05:11:22;10.00;88.60
48416;DHT22;34227;51.840;4.146;2023-05-19T05:13:48;10.00;88.60
48416;DHT22;34227;51.840;4.146;2023-05-19T05:16:14;10.10;88.50
48416;DHT22;34227;51.840;4.146;2023-05-19T05:18:40;10.10;88.30
48416;DHT22;34227;51.840;4.146;2023-05-19T05:21:06;10.10;87.90
48416;DHT22;34227;51.840;4.146;2023-05-19T05:23:32;10.10;87.70
48416;DHT22;34227;51.840;4.146;2023-05-19T05:25:57;10.10;87.70
48416;DHT22;34227;51.840;4.146;2023-05-19T05:28:23;10.10;88.00
48416;DHT22;34227;51.840;4.146;2023-05-19T05:30:48;10.10;88.40
48416;DHT22;34227;51.840;4.146;2023-05-19T05:33:15;10.10;88.80
48416;DHT22;34227;51.840;4.146;2023-05-19T05:35:41;10.10;88.90
48416;DHT22;34227;51.840;4.146;2023-05-19T05:38:07;10.20;90.20
48416;DHT22;34227;51.840;4.146;2023-05-19T05:40:32;10.20;90.50
48416;DHT22;34227;51.840;4.146;2023-05-19T05:42:58;10.20;90.80
48416;DHT22;34227;51.840;4.146;2023-05-19T05:45:24;10.30;91.60
48416;DHT22;34227;51.840;4.146;2023-05-19T05:50:34;10.40;91.10
48416;DHT22;34227;51.840;4.146;2023-05-19T05:53:00;10.50;91.80
48416;DHT22;34227;51.840;4.146;2023-05-19T05:55:26;10.50;91.60
48416;DHT22;34227;51.840;4.146;2023-05-19T05:57:52;10.60;91.20
48416;DHT22;34227;51.840;4.146;2023-05-19T06:00:20;10.70;91.80
48416;DHT22;34227;51.840;4.146;2023-05-19T06:02:47;10.90;91.40
48416;DHT22;34227;51.840;4.146;2023-05-19T06:05:14;11.00;91.60
48416;DHT22;34227;51.840;4.146;2023-05-19T06:07:40;11.30;91.60
48416;DHT22;34227;51.840;4.146;2023-05-19T06:10:06;11.50;92.10
48416;DHT22;34227;51.840;4.146;2023-05-19T06:12:33;11.80;91.50
48416;DHT22;34227;51.840;4.146;2023-05-19T06:15:08;12.10;91.60
48416;DHT22;34227;51.840;4.146;2023-05-19T06:17:34;12.40;91.50
48416;DHT22;34227;51.840;4.146;2023-05-19T06:20:03;12.70;91.30
48416;DHT22;34227;51.840;4.146;2023-05-19T06:22:33;13.00;91.10
48416;DHT22;34227;51.840;4.146;2023-05-19T06:25:06;13.40;90.90
48416;DHT22;34227;51.840;4.146;2023-05-19T06:27:33;13.70;90.60
48416;DHT22;34227;51.840;4.146;2023-05-19T06:30:07;14.00;90.20
48416;DHT22;34227;51.840;4.146;2023-05-19T06:32:33;14.30;89.90
48416;DHT22;34227;51.840;4.146;2023-05-19T06:34:59;14.60;89.40
48416;DHT22;34227;51.840;4.146;2023-05-19T06:37:24;15.00;89.20
48416;DHT22;34227;51.840;4.146;2023-05-19T06:39:59;15.20;88.20
48416;DHT22;34227;51.840;4.146;2023-05-19T06:42:25;15.70;88.60
48416;DHT22;34227;51.840;4.146;2023-05-19T06:44:51;16.10;87.90
48416;DHT22;34227;51.840;4.146;2023-05-19T06:47:18;16.40;87.50
48416;DHT22;34227;51.840;4.146;2023-05-19T06:49:45;16.80;86.70
48416;DHT22;34227;51.840;4.146;2023-05-19T06:52:11;17.10;85.70
48416;DHT22;34227;51.840;4.146;2023-05-19T06:54:37;17.50;85.90
48416;DHT22;34227;51.840;4.146;2023-05-19T06:57:06;17.80;85.30
48416;DHT22;34227;51.840;4.146;2023-05-19T06:59:32;18.20;84.80
48416;DHT22;34227;51.840;4.146;2023-05-19T07:01:58;18.50;84.60
48416;DHT22;34227;51.840;4.146;2023-05-19T07:04:24;18.90;84.10
48416;DHT22;34227;51.840;4.146;2023-05-19T07:06:49;19.20;83.70
48416;DHT22;34227;51.840;4.146;2023-05-19T07:09:15;19.20;81.30
48416;DHT22;34227;51.840;4.146;2023-05-19T07:14:33;20.00;82.50
48416;DHT22;34227;51.840;4.146;2023-05-19T07:17:00;20.40;80.70
48416;DHT22;34227;51.840;4.146;2023-05-19T07:19:42;20.70;80.00
48416;DHT22;34227;51.840;4.146;2023-05-19T07:22:07;20.90;79.80
48416;DHT22;34227;51.840;4.146;2023-05-19T07:24:33;21.30;79.10
48416;DHT22;34227;51.840;4.146;2023-05-19T07:27:04;21.50;78.60
48416;DHT22;34227;51.840;4.146;2023-05-19T07:29:29;21.70;77.80
48416;DHT22;34227;51.840;4.146;2023-05-19T07:31:55;22.00;77.90
48416;DHT22;34227;51.840;4.146;2023-05-19T07:34:25;22.20;77.50
48416;DHT22;34227;51.840;4.146;2023-05-19T07:36:50;22.40;75.50
48416;DHT22;34227;51.840;4.146;2023-05-19T07:39:17;22.60;75.80
48416;DHT22;34227;51.840;4.146;2023-05-19T07:41:45;22.80;75.00
48416;DHT22;34227;51.840;4.146;2023-05-19T07:47:04;23.20;73.90
48416;DHT22;34227;51.840;4.146;2023-05-19T07:49:30;23.50;74.00
48416;DHT22;34227;51.840;4.146;2023-05-19T07:51:58;23.70;73.80
48416;DHT22;34227;51.840;4.146;2023-05-19T07:54:28;24.00;72.80
48416;DHT22;34227;51.840;4.146;2023-05-19T08:02:54;25.00;71.10
48416;DHT22;34227;51.840;4.146;2023-05-19T08:05:21;25.20;71.20
48416;DHT22;34227;51.840;4.146;2023-05-19T08:07:46;25.50;71.50
48416;DHT22;34227;51.840;4.146;2023-05-19T08:10:18;25.60;71.10
48416;DHT22;34227;51.840;4.146;2023-05-19T08:12:43;25.80;71.80
48416;DHT22;34227;51.840;4.146;2023-05-19T08:15:12;25.70;70.30
48416;DHT22;34227;51.840;4.146;2023-05-19T08:17:46;26.00;70.80
48416;DHT22;34227;51.840;4.146;2023-05-19T08:20:12;26.30;70.70
48416;DHT22;34227;51.840;4.146;2023-05-19T08:22:53;26.60;70.60
48416;DHT22;34227;51.840;4.146;2023-05-19T08:34:22;27.50;66.90
48416;DHT22;34227;51.840;4.146;2023-05-19T08:39:51;28.00;61.50
48416;DHT22;34227;51.840;4.146;2023-05-19T08:59:43;29.50;55.10
48416;DHT22;34227;51.840;4.146;2023-05-19T09:02:10;29.70;54.40
48416;DHT22;34227;51.840;4.146;2023-05-19T09:04:40;29.90;54.80
48416;DHT22;34227;51.840;4.146;2023-05-19T09:07:15;30.10;55.40
48416;DHT22;34227;51.840;4.146;2023-05-19T09:09:49;30.20;54.40
48416;DHT22;34227;51.840;4.146;2023-05-19T09:12:18;30.40;53.30
48416;DHT22;34227;51.840;4.146;2023-05-19T09:14:47;30.50;52.30
48416;DHT22;34227;51.840;4.146;2023-05-19T09:17:24;30.60;52.60
48416;DHT22;34227;51.840;4.146;2023-05-19T09:19:53;30.70;52.30
48416;DHT22;34227;51.840;4.146;2023-05-19T09:22:22;30.80;50.80
48416;DHT22;34227;51.840;4.146;2023-05-19T09:25:00;30.90;50.10
48416;DHT22;34227;51.840;4.146;2023-05-19T09:27:25;30.90;49.80
48416;DHT22;34227;51.840;4.146;2023-05-19T09:29:54;30.90;48.50
48416;DHT22;34227;51.840;4.146;2023-05-19T09:32:23;30.90;48.60
48416;DHT22;34227;51.840;4.146;2023-05-19T09:34:49;30.80;48.50
48416;DHT22;34227;51.840;4.146;2023-05-19T09:37:15;30.80;47.80
48416;DHT22;34227;51.840;4.146;2023-05-19T09:39:41;30.80;47.20
48416;DHT22;34227;51.840;4.146;2023-05-19T09:45:08;30.70;46.30
48416;DHT22;34227;51.840;4.146;2023-05-19T09:47:38;30.70;45.90
48416;DHT22;34227;51.840;4.146;2023-05-19T09:50:10;30.60;45.80
48416;DHT22;34227;51.840;4.146;2023-05-19T09:52:43;30.60;45.60
48416;DHT22;34227;51.840;4.146;2023-05-19T09:55:10;30.50;45.00
48416;DHT22;34227;51.840;4.146;2023-05-19T09:57:37;30.50;45.10
48416;DHT22;34227;51.840;4.146;2023-05-19T10:00:09;30.50;44.70
48416;DHT22;34227;51.840;4.146;2023-05-19T10:02:47;30.40;45.10
48416;DHT22;34227;51.840;4.146;2023-05-19T10:05:17;30.40;44.30
48416;DHT22;34227;51.840;4.146;2023-05-19T10:07:53;30.50;45.10
48416;DHT22;34227;51.840;4.146;2023-05-19T10:10:39;30.50;45.10
48416;DHT22;34227;51.840;4.146;2023-05-19T10:13:08;30.50;45.20
48416;DHT22;34227;51.840;4.146;2023-05-19T10:22:24;30.50;44.50
48416;DHT22;34227;51.840;4.146;2023-05-19T10:28:06;30.30;44.60
48416;DHT22;34227;51.840;4.146;2023-05-19T10:31:15;30.20;45.00
48416;DHT22;34227;51.840;4.146;2023-05-19T10:33:46;30.00;45.40
48416;DHT22;34227;51.840;4.146;2023-05-19T10:36:52;29.90;45.70
48416;DHT22;34227;51.840;4.146;2023-05-19T10:44:43;29.40;45.60
48416;DHT22;34227;51.840;4.146;2023-05-19T10:47:13;29.30;46.40
48416;DHT22;34227;51.840;4.146;2023-05-19T10:49:39;29.20;46.50
48416;DHT22;34227;51.840;4.146;2023-05-19T10:52:17;29.10;46.40
48416;DHT22;34227;51.840;4.146;2023-05-19T10:54:43;28.90;46.50
48416;DHT22;34227;51.840;4.146;2023-05-19T10:57:16;28.80;46.60
48416;DHT22;34227;51.840;4.146;2023-05-19T10:59:41;28.70;46.90
48416;DHT22;34227;51.840;4.146;2023-05-19T11:02:09;28.50;46.80
48416;DHT22;34227;51.840;4.146;2023-05-19T11:04:48;28.50;47.20
48416;DHT22;34227;51.840;4.146;2023-05-19T11:10:22;28.20;47.40
48416;DHT22;34227;51.840;4.146;2023-05-19T11:12:48;27.80;46.10
48416;DHT22;34227;51.840;4.146;2023-05-19T11:15:14;27.70;46.90
48416;DHT22;34227;51.840;4.146;2023-05-19T11:17:40;27.60;47.20
48416;DHT22;34227;51.840;4.146;2023-05-19T11:23:14;27.20;47.40
48416;DHT22;34227;51.840;4.146;2023-05-19T11:25:46;27.20;47.30
48416;DHT22;34227;51.840;4.146;2023-05-19T11:28:16;27.00;47.60
48416;DHT22;34227;51.840;4.146;2023-05-19T11:30:43;26.90;47.20
48416;DHT22;34227;51.840;4.146;2023-05-19T11:33:17;26.70;47.90
48416;DHT22;34227;51.840;4.146;2023-05-19T11:36:04;26.60;48.00
48416;DHT22;34227;51.840;4.146;2023-05-19T11:38:37;26.50;47.80
48416;DHT22;34227;51.840;4.146;2023-05-19T11:41:02;26.30;48.10
48416;DHT22;34227;51.840;4.146;2023-05-19T11:43:31;26.30;48.40
48416;DHT22;34227;51.840;4.146;2023-05-19T11:46:02;26.20;48.60
48416;DHT22;34227;51.840;4.146;2023-05-19T11:51:29;25.80;48.30
48416;DHT22;34227;51.840;4.146;2023-05-19T11:53:56;25.70;48.40
48416;DHT22;34227;51.840;4.146;2023-05-19T11:56:22;25.60;48.70
48416;DHT22;34227;51.840;4.146;2023-05-19T11:58:51;25.40;49.10
48416;DHT22;34227;51.840;4.146;2023-05-19T12:01:22;25.30;49.70
48416;DHT22;34227;51.840;4.146;2023-05-19T12:04:00;25.20;49.80
48416;DHT22;34227;51.840;4.146;2023-05-19T12:06:27;25.10;50.00
48416;DHT22;34227;51.840;4.146;2023-05-19T12:09:01;25.00;50.00
48416;DHT22;34227;51.840;4.146;2023-05-19T12:11:37;24.90;49.90
48416;DHT22;34227;51.840;4.146;2023-05-19T12:14:05;24.60;49.70
48416;DHT22;34227;51.840;4.146;2023-05-19T12:16:33;24.50;50.00
48416;DHT22;34227;51.840;4.146;2023-05-19T12:18:58;24.40;49.70
48416;DHT22;34227;51.840;4.146;2023-05-19T12:24:09;24.20;50.20
48416;DHT22;34227;51.840;4.146;2023-05-19T12:26:39;24.00;50.10
48416;DHT22;34227;51.840;4.146;2023-05-19T12:29:04;24.00;50.20
48416;DHT22;34227;51.840;4.146;2023-05-19T12:31:31;23.90;50.70
48416;DHT22;34227;51.840;4.146;2023-05-19T12:33:58;23.80;51.20
48416;DHT22;34227;51.840;4.146;2023-05-19T12:36:25;23.80;51.70
48416;DHT22;34227;51.840;4.146;2023-05-19T12:38:54;23.70;51.50
48416;DHT22;34227;51.840;4.146;2023-05-19T12:41:20;23.60;51.00
48416;DHT22;34227;51.840;4.146;2023-05-19T12:46:32;23.40;50.30
48416;DHT22;34227;51.840;4.146;2023-05-19T12:48:58;23.30;51.50
48416;DHT22;34227;51.840;4.146;2023-05-19T12:51:25;23.30;52.10
48416;DHT22;34227;51.840;4.146;2023-05-19T12:56:38;23.10;51.70
48416;DHT22;34227;51.840;4.146;2023-05-19T12:59:19;23.10;52.20
48416;DHT22;34227;51.840;4.146;2023-05-19T13:01:45;23.10;52.60
48416;DHT22;34227;51.840;4.146;2023-05-19T13:04:10;23.00;51.70
48416;DHT22;34227;51.840;4.146;2023-05-19T13:06:37;22.90;51.50
48416;DHT22;34227;51.840;4.146;2023-05-19T13:09:02;22.90;51.30
48416;DHT22;34227;51.840;4.146;2023-05-19T13:11:31;22.80;51.30
48416;DHT22;34227;51.840;4.146;2023-05-19T13:14:05;22.80;51.80
48416;DHT22;34227;51.840;4.146;2023-05-19T13:16:31;22.80;51.50
48416;DHT22;34227;51.840;4.146;2023-05-19T13:18:56;22.80;51.10
48416;DHT22;34227;51.840;4.146;2023-05-19T13:21:22;22.80;51.60
48416;DHT22;34227;51.840;4.146;2023-05-19T13:23:47;22.80;52.20
48416;DHT22;34227;51.840;4.146;2023-05-19T13:26:13;22.90;52.40
48416;DHT22;34227;51.840;4.146;2023-05-19T13:28:38;22.90;52.20
48416;DHT22;34227;51.840;4.146;2023-05-19T13:31:04;22.90;51.70
48416;DHT22;34227;51.840;4.146;2023-05-19T13:33:31;22.90;51.60
48416;DHT22;34227;51.840;4.146;2023-05-19T13:35:57;22.90;51.00
48416;DHT22;34227;51.840;4.146;2023-05-19T13:38:23;22.90;50.60
48416;DHT22;34227;51.840;4.146;2023-05-19T13:40:48;23.10;51.30
48416;DHT22;34227;51.840;4.146;2023-05-19T13:43:17;23.00;50.60
48416;DHT22;34227;51.840;4.146;2023-05-19T13:45:42;22.90;49.40
48416;DHT22;34227;51.840;4.146;2023-05-19T13:48:08;22.90;50.40
48416;DHT22;34227;51.840;4.146;2023-05-19T13:50:35;23.00;50.30
48416;DHT22;34227;51.840;4.146;2023-05-19T13:53:01;23.10;50.50
48416;DHT22;34227;51.840;4.146;2023-05-19T13:55:28;23.10;50.20
48416;DHT22;34227;51.840;4.146;2023-05-19T13:57:53;23.10;49.80
48416;DHT22;34227;51.840;4.146;2023-05-19T14:00:19;23.10;50.50
48416;DHT22;34227;51.840;4.146;2023-05-19T14:02:45;23.10;50.20
48416;DHT22;34227;51.840;4.146;2023-05-19T14:05:11;23.10;49.20
48416;DHT22;34227;51.840;4.146;2023-05-19T14:07:37;23.10;50.30
48416;DHT22;34227;51.840;4.146;2023-05-19T14:10:03;23.20;50.40
48416;DHT22;34227;51.840;4.146;2023-05-19T14:12:30;23.20;49.00
48416;DHT22;34227;51.840;4.146;2023-05-19T14:15:10;23.10;49.10
48416;DHT22;34227;51.840;4.146;2023-05-19T14:17:35;23.20;49.60
48416;DHT22;34227;51.840;4.146;2023-05-19T14:20:04;23.30;50.10
48416;DHT22;34227;51.840;4.146;2023-05-19T14:22:31;23.30;49.50
48416;DHT22;34227;51.840;4.146;2023-05-19T14:24:57;23.30;49.80
48416;DHT22;34227;51.840;4.146;2023-05-19T14:27:24;23.40;50.00
48416;DHT22;34227;51.840;4.146;2023-05-19T14:29:52;23.40;49.60
48416;DHT22;34227;51.840;4.146;2023-05-19T14:35:16;23.30;49.60
48416;DHT22;34227;51.840;4.146;2023-05-19T14:37:42;23.30;49.10
48416;DHT22;34227;51.840;4.146;2023-05-19T14:40:08;23.30;49.80
48416;DHT22;34227;51.840;4.146;2023-05-19T14:42:33;23.30;49.80
48416;DHT22;34227;51.840;4.146;2023-05-19T14:44:59;23.30;49.70
48416;DHT22;34227;51.840;4.146;2023-05-19T14:47:25;23.30;49.30
48416;DHT22;34227;51.840;4.146;2023-05-19T14:49:53;23.30;50.00
48416;DHT22;34227;51.840;4.146;2023-05-19T14:52:18;23.40;50.30
48416;DHT22;34227;51.840;4.146;2023-05-19T14:54:44;23.30;50.20
48416;DHT22;34227;51.840;4.146;2023-05-19T14:57:10;23.30;50.60
48416;DHT22;34227;51.840;4.146;2023-05-19T14:59:36;23.30;51.10
48416;DHT22;34227;51.840;4.146;2023-05-19T15:02:02;23.30;50.80
48416;DHT22;34227;51.840;4.146;2023-05-19T15:04:27;23.20;51.00
48416;DHT22;34227;51.840;4.146;2023-05-19T15:06:53;23.30;51.50
48416;DHT22;34227;51.840;4.146;2023-05-19T15:09:18;23.20;51.60
48416;DHT22;34227;51.840;4.146;2023-05-19T15:11:44;23.10;51.70
48416;DHT22;34227;51.840;4.146;2023-05-19T15:14:09;23.10;51.80
48416;DHT22;34227;51.840;4.146;2023-05-19T15:16:35;23.00;51.80
48416;DHT22;34227;51.840;4.146;2023-05-19T15:19:01;23.00;52.00
48416;DHT22;34227;51.840;4.146;2023-05-19T15:21:26;22.90;51.90
48416;DHT22;34227;51.840;4.146;2023-05-19T15:23:54;22.90;52.20
48416;DHT22;34227;51.840;4.146;2023-05-19T15:26:23;22.90;52.60
48416;DHT22;34227;51.840;4.146;2023-05-19T15:28:48;22.90;52.60
48416;DHT22;34227;51.840;4.146;2023-05-19T15:31:14;22.90;52.80
48416;DHT22;34227;51.840;4.146;2023-05-19T15:33:39;22.80;52.70
48416;DHT22;34227;51.840;4.146;2023-05-19T15:38:33;22.60;53.10
48416;DHT22;34227;51.840;4.146;2023-05-19T15:40:59;22.50;54.00
48416;DHT22;34227;51.840;4.146;2023-05-19T15:43:24;22.50;54.30
48416;DHT22;34227;51.840;4.146;2023-05-19T15:45:50;22.30;54.90
48416;DHT22;34227;51.840;4.146;2023-05-19T15:48:19;22.30;55.00
48416;DHT22;34227;51.840;4.146;2023-05-19T15:50:44;22.20;55.40
48416;DHT22;34227;51.840;4.146;2023-05-19T15:53:10;22.10;55.30
48416;DHT22;34227;51.840;4.146;2023-05-19T15:55:36;22.00;55.70
48416;DHT22;34227;51.840;4.146;2023-05-19T15:58:04;22.00;55.60
48416;DHT22;34227;51.840;4.146;2023-05-19T16:00:30;21.90;56.60
48416;DHT22;34227;51.840;4.146;2023-05-19T16:02:55;21.80;56.70
48416;DHT22;34227;51.840;4.146;2023-05-19T16:05:21;21.80;56.70
48416;DHT22;34227;51.840;4.146;2023-05-19T16:07:46;21.70;56.80
48416;DHT22;34227;51.840;4.146;2023-05-19T16:10:12;21.60;57.00
48416;DHT22;34227;51.840;4.146;2023-05-19T16:12:38;21.50;57.30
48416;DHT22;34227;51.840;4.146;2023-05-19T16:15:03;21.50;57.60
48416;DHT22;34227;51.840;4.146;2023-05-19T16:17:29;21.40;57.70
48416;DHT22;34227;51.840;4.146;2023-05-19T16:19:55;21.30;58.00
48416;DHT22;34227;51.840;4.146;2023-05-19T16:22:20;21.20;57.70
48416;DHT22;34227;51.840;4.146;2023-05-19T16:24:49;21.20;58.60
48416;DHT22;34227;51.840;4.146;2023-05-19T16:27:15;21.00;59.20
48416;DHT22;34227;51.840;4.146;2023-05-19T16:29:40;21.00;59.20
48416;DHT22;34227;51.840;4.146;2023-05-19T16:32:06;20.90;59.70
48416;DHT22;34227;51.840;4.146;2023-05-19T16:34:35;20.70;59.90
48416;DHT22;34227;51.840;4.146;2023-05-19T16:37:00;20.70;60.10
48416;DHT22;34227;51.840;4.146;2023-05-19T16:39:26;20.60;60.30
48416;DHT22;34227;51.840;4.146;2023-05-19T16:41:52;20.60;60.30
48416;DHT22;34227;51.840;4.146;2023-05-19T16:44:17;20.50;60.70
48416;DHT22;34227;51.840;4.146;2023-05-19T16:46:46;20.40;60.90
48416;DHT22;34227;51.840;4.146;2023-05-19T16:49:24;20.30;62.10
48416;DHT22;34227;51.840;4.146;2023-05-19T16:51:50;20.10;62.60
48416;DHT22;34227;51.840;4.146;2023-05-19T16:54:17;19.90;63.80
48416;DHT22;34227;51.840;4.146;2023-05-19T16:56:42;20.00;62.80
48416;DHT22;34227;51.840;4.146;2023-05-19T16:59:08;20.00;63.60
48416;DHT22;34227;51.840;4.146;2023-05-19T17:04:20;20.00;63.00
48416;DHT22;34227;51.840;4.146;2023-05-19T17:09:16;20.00;62.40
48416;DHT22;34227;51.840;4.146;2023-05-19T17:23:29;19.80;63.10
48416;DHT22;34227;51.840;4.146;2023-05-19T17:25:54;19.80;63.20
48416;DHT22;34227;51.840;4.146;2023-05-19T17:28:20;19.70;63.60
48416;DHT22;34227;51.840;4.146;2023-05-19T17:30:45;19.60;63.70
48416;DHT22;34227;51.840;4.146;2023-05-19T17:33:11;19.60;63.40
48416;DHT22;34227;51.840;4.146;2023-05-19T17:38:22;19.60;63.40